Time;durP1;ratioP1;P1;durP2;ratioP2;P2;SDS_P1;SDS_P2;PMS_P1;PMS_P2;Temp;Humidity;BMP_temperature;BMP_pressure;BME280_temperature;BME280_humidity;BME280_pressure;Samples;Min_cycle;Max_cycle;Signal;HPM_P1;HPM_P2
2023/05/18 00:00:14;;;;;;;;;;;14.10;81.40;;;-151.14;100.00;62537.16;5074128;28;19927;-85
2023/05/18 00:02:43;;;;;;;;;;;14.10;81.40;;;-151.14;100.00;62537.16;5093228;28;19920;-85
2023/05/18 00:05:12;;;;;;;;;;;14.10;81.30;;;-151.14;100.00;62537.16;5058216;28;19942;-85
2023/05/18 00:07:41;;;;;;;;;;;14.10;81.30;;;-151.14;100.00;62537.16;5058281;28;20246;-85
2023/05/18 00:10:10;;;;;;;;;;;14.10;81.30;;;-151.14;100.00;62537.16;5057464;28;19920;-85
2023/05/18 00:12:38;;;;;;;;;;;14.10;81.30;;;-151.14;100.00;62537.16;5058305;28;19920;-85
2023/05/18 00:15:07;;;;;;;;;;;14.10;81.30;;;-151.14;100.00;62537.16;5058188;28;20097;-85
2023/05/18 00:17:35;;;;;;;;;;;14.10;81.20;;;-151.14;100.00;62537.16;5092706;28;19920;-85
2023/05/18 00:20:05;;;;;;;;;;;14.10;81.20;;;-151.14;100.00;62537.16;5056018;28;20256;-85
2023/05/18 00:22:34;;;;;;;;;;;14.10;81.20;;;-151.14;100.00;62537.16;5058122;28;19921;-85
2023/05/18 00:25:02;;;;;;;;;;;14.10;81.20;;;-151.14;100.00;62537.16;5058026;28;19927;-85
2023/05/18 00:27:31;;;;;;;;;;;14.10;81.30;;;-151.14;100.00;62537.16;5058037;28;19970;-85
2023/05/18 00:29:59;;;;;;;;;;;14.10;81.20;;;-151.14;100.00;62537.16;5073868;28;19920;-85
2023/05/18 00:32:27;;;;;;;;;;;14.10;81.20;;;-151.14;100.00;62537.16;5058093;28;19927;-85
2023/05/18 00:34:55;;;;;;;;;;;14.10;81.10;;;-151.14;100.00;62537.16;5074530;28;19920;-85
2023/05/18 00:37:24;;;;;;;;;;;14.10;81.20;;;-151.14;100.00;62537.16;5057894;28;19927;-84
2023/05/18 00:39:54;;;;;;;;;;;14.10;81.10;;;-151.14;100.00;62537.16;5057233;28;19920;-84
2023/05/18 00:42:22;;;;;;;;;;;14.10;81.10;;;-151.14;100.00;62537.16;5057745;28;19920;-84
2023/05/18 00:44:50;;;;;;;;;;;14.10;81.10;;;-151.14;100.00;62537.16;5057634;28;19920;-84
2023/05/18 00:47:20;;;;;;;;;;;14.10;81.10;;;-151.14;100.00;62537.16;5057693;28;19931;-84
2023/05/18 00:49:48;;;;;;;;;;;14.10;81.00;;;-151.14;100.00;62537.16;5056982;28;19926;-84
2023/05/18 00:52:16;;;;;;;;;;;14.10;81.10;;;-151.14;100.00;62537.16;5057603;28;19920;-84
2023/05/18 00:54:44;;;;;;;;;;;14.10;81.10;;;-151.14;100.00;62537.16;5057664;28;19928;-84
2023/05/18 00:57:14;;;;;;;;;;;14.10;81.10;;;-151.14;100.00;62537.16;5057624;28;20231;-84
2023/05/18 00:59:42;;;;;;;;;;;14.10;81.00;;;-151.14;100.00;62537.16;5056729;28;19920;-84
2023/05/18 01:02:10;;;;;;;;;;;14.10;81.10;;;-151.14;100.00;62537.16;5057481;28;20093;-84
2023/05/18 01:04:40;;;;;;;;;;;14.10;81.10;;;-151.14;100.00;62537.16;5074193;28;19928;-84
2023/05/18 01:07:08;;;;;;;;;;;14.10;81.20;;;-151.14;100.00;62537.16;5057328;28;19920;-84
2023/05/18 01:09:36;;;;;;;;;;;14.10;81.10;;;-151.14;100.00;62537.16;5073374;28;19920;-84
2023/05/18 01:12:08;;;;;;;;;;;14.00;81.00;;;-151.14;100.00;62537.16;5074067;28;20116;-84
2023/05/18 01:14:41;;;;;;;;;;;14.00;81.00;;;-151.14;100.00;62537.16;5074068;28;19921;-84
2023/05/18 01:17:13;;;;;;;;;;;14.10;81.20;;;-151.14;100.00;62537.16;5057130;28;20234;-85
2023/05/18 01:20:10;;;;;;;;;;;14.10;81.10;;;-151.14;100.00;62537.16;5056523;28;19920;-85
2023/05/18 01:23:16;;;;;;;;;;;14.00;81.00;;;-151.14;100.00;62537.16;5057112;28;19930;-85
2023/05/18 01:25:48;;;;;;;;;;;14.10;81.10;;;-151.14;100.00;62537.16;4974364;28;20129;-85
2023/05/18 01:28:19;;;;;;;;;;;14.10;81.10;;;-151.14;100.00;62537.16;4958031;28;20149;-86
2023/05/18 01:30:48;;;;;;;;;;;14.00;81.00;;;-151.14;100.00;62537.16;5023922;28;20117;-86
2023/05/18 01:33:16;;;;;;;;;;;14.00;81.10;;;-151.14;100.00;62537.16;5073367;28;19920;-86
2023/05/18 01:35:46;;;;;;;;;;;14.00;81.10;;;-151.14;100.00;62537.16;5056883;28;19926;-86
2023/05/18 01:38:15;;;;;;;;;;;14.00;82.00;;;-151.14;100.00;62537.16;5073622;28;19920;-86
2023/05/18 01:40:48;;;;;;;;;;;14.00;81.10;;;-151.14;100.00;62537.16;5056634;28;19926;-86
2023/05/18 01:43:18;;;;;;;;;;;14.00;81.10;;;-151.14;100.00;62537.16;5056820;28;20093;-85
2023/05/18 01:45:47;;;;;;;;;;;14.00;81.10;;;-151.14;100.00;62537.16;5056907;28;19920;-86
2023/05/18 01:48:17;;;;;;;;;;;14.00;81.10;;;-151.14;100.00;62537.16;5056544;28;19920;-85
2023/05/18 01:50:47;;;;;;;;;;;14.00;81.20;;;-151.14;100.00;62537.16;5056666;28;19920;-83
2023/05/18 01:53:20;;;;;;;;;;;14.00;81.10;;;-151.14;100.00;62537.16;5056743;28;19920;-83
2023/05/18 01:55:48;;;;;;;;;;;14.00;81.20;;;-151.14;100.00;62537.16;5056787;28;19921;-82
2023/05/18 01:58:16;;;;;;;;;;;14.00;81.20;;;-151.14;100.00;62537.16;5056380;28;19920;-85
2023/05/18 02:00:46;;;;;;;;;;;14.00;81.20;;;-151.14;100.00;62537.16;5056378;28;19920;-85
2023/05/18 02:03:14;;;;;;;;;;;14.00;81.10;;;-151.14;100.00;62537.16;5056617;28;19920;-84
2023/05/18 02:05:42;;;;;;;;;;;14.00;81.10;;;-151.14;100.00;62537.16;5056657;28;19920;-85
2023/05/18 02:08:10;;;;;;;;;;;14.00;81.00;;;-151.14;100.00;62537.16;5056680;28;20373;-84
2023/05/18 02:10:38;;;;;;;;;;;14.10;81.20;;;-151.14;100.00;62537.16;5072644;28;20116;-84
2023/05/18 02:13:08;;;;;;;;;;;14.00;81.10;;;-151.14;100.00;62537.16;5056474;28;19920;-84
2023/05/18 02:15:36;;;;;;;;;;;14.00;81.00;;;-151.14;100.00;62537.16;5056415;28;19927;-84
2023/05/18 02:18:07;;;;;;;;;;;14.10;81.00;;;-151.14;100.00;62537.16;5056276;28;19921;-84
2023/05/18 02:20:37;;;;;;;;;;;14.10;81.00;;;-151.14;100.00;62537.16;5055460;28;19920;-84
2023/05/18 02:23:05;;;;;;;;;;;14.10;81.10;;;-151.14;100.00;62537.16;5055574;28;19920;-84
2023/05/18 02:25:33;;;;;;;;;;;14.10;81.10;;;-151.14;100.00;62537.16;5055654;28;19986;-85
2023/05/18 02:28:01;;;;;;;;;;;14.10;81.00;;;-151.14;100.00;62537.16;5055915;28;19920;-85
2023/05/18 02:30:32;;;;;;;;;;;14.10;81.10;;;-151.14;100.00;62537.16;5055596;28;19943;-85
2023/05/18 02:33:00;;;;;;;;;;;14.10;81.20;;;-151.14;100.00;62537.16;5056569;28;20222;-85
2023/05/18 02:35:29;;;;;;;;;;;14.00;81.10;;;-151.14;100.00;62537.16;5056185;28;20120;-85
2023/05/18 02:37:57;;;;;;;;;;;14.10;81.30;;;-151.14;100.00;62537.16;5072638;28;21238;-85
2023/05/18 02:40:25;;;;;;;;;;;14.00;81.20;;;-151.14;100.00;62537.16;5055515;28;19928;-85
2023/05/18 02:42:53;;;;;;;;;;;14.00;81.20;;;-151.14;100.00;62537.16;5057438;28;19926;-84
2023/05/18 02:45:22;;;;;;;;;;;14.00;81.20;;;-151.14;100.00;62537.16;5059157;28;19920;-85
2023/05/18 02:47:50;;;;;;;;;;;14.00;81.10;;;-151.14;100.00;62537.16;5059569;28;20101;-85
2023/05/18 02:50:17;;;;;;;;;;;14.00;81.20;;;-151.14;100.00;62537.16;5058756;28;19927;-84
2023/05/18 02:52:49;;;;;;;;;;;14.10;81.30;;;-151.14;100.00;62537.16;5059325;28;19920;-84
2023/05/18 02:55:17;;;;;;;;;;;14.00;81.10;;;-151.14;100.00;62537.16;5059440;28;19920;-84
2023/05/18 02:58:12;;;;;;;;;;;14.00;81.20;;;-151.14;100.00;62537.16;5073094;28;19926;-84
2023/05/18 03:00:59;;;;;;;;;;;14.00;81.30;;;-151.14;100.00;62537.16;5059290;28;19920;-84
2023/05/18 03:03:32;;;;;;;;;;;14.00;81.30;;;-151.14;100.00;62537.16;5059234;28;19920;-85
2023/05/18 03:06:01;;;;;;;;;;;14.00;81.30;;;-151.14;100.00;62537.16;5059517;28;19920;-84
2023/05/18 03:08:30;;;;;;;;;;;14.00;81.20;;;-151.14;100.00;62537.16;5075244;28;19920;-85
2023/05/18 03:10:59;;;;;;;;;;;14.00;81.20;;;-151.14;100.00;62537.16;5076086;28;19926;-85
2023/05/18 03:13:27;;;;;;;;;;;14.00;81.20;;;-151.14;100.00;62537.16;5059157;28;19920;-85
2023/05/18 03:15:56;;;;;;;;;;;14.00;81.20;;;-151.14;100.00;62537.16;5059171;28;20212;-84
2023/05/18 03:18:24;;;;;;;;;;;14.00;81.20;;;-151.14;100.00;62537.16;5058590;28;19926;-85
2023/05/18 03:20:52;;;;;;;;;;;14.00;81.20;;;-151.14;100.00;62537.16;5059018;28;19927;-85
2023/05/18 03:23:21;;;;;;;;;;;14.00;81.10;;;-151.14;100.00;62537.16;5058858;28;19926;-85
2023/05/18 03:25:53;;;;;;;;;;;14.00;81.10;;;-151.14;100.00;62537.16;5039221;28;20212;-85
2023/05/18 03:28:21;;;;;;;;;;;14.00;81.10;;;-151.14;100.00;62537.16;5038366;28;19921;-85
2023/05/18 03:30:50;;;;;;;;;;;14.00;81.10;;;-151.14;100.00;62537.16;5055466;28;19924;-85
2023/05/18 03:33:18;;;;;;;;;;;14.00;81.20;;;-151.14;100.00;62537.16;5055636;28;20209;-85
2023/05/18 03:35:46;;;;;;;;;;;14.00;81.20;;;-151.14;100.00;62537.16;5038966;28;19927;-85
2023/05/18 03:38:15;;;;;;;;;;;14.00;81.20;;;-151.14;100.00;62537.16;5038600;28;19920;-85
2023/05/18 03:40:47;;;;;;;;;;;14.00;81.10;;;-151.14;100.00;62537.16;5058482;28;19927;-85
2023/05/18 03:43:16;;;;;;;;;;;14.00;81.10;;;-151.14;100.00;62537.16;5058741;28;19920;-85
2023/05/18 03:45:46;;;;;;;;;;;14.00;81.20;;;-151.14;100.00;62537.16;5075485;28;19920;-85
2023/05/18 03:48:14;;;;;;;;;;;14.00;81.20;;;-151.14;100.00;62537.16;5058378;28;19920;-85
2023/05/18 03:50:42;;;;;;;;;;;14.00;81.20;;;-151.14;100.00;62537.16;5057800;28;19921;-85
2023/05/18 03:53:10;;;;;;;;;;;14.00;81.20;;;-151.14;100.00;62537.16;5074783;28;19926;-85
2023/05/18 03:55:38;;;;;;;;;;;14.00;81.20;;;-151.14;100.00;62537.16;5075478;28;19927;-85
2023/05/18 03:58:06;;;;;;;;;;;14.00;81.20;;;-151.14;100.00;62537.16;5058365;28;19926;-85
2023/05/18 04:00:35;;;;;;;;;;;14.00;82.10;;;-151.14;100.00;62537.16;5057752;28;20116;-85
2023/05/18 04:03:04;;;;;;;;;;;14.00;81.30;;;-151.14;100.00;62537.16;5074988;28;19927;-85
2023/05/18 04:05:32;;;;;;;;;;;14.00;81.30;;;-151.14;100.00;62537.16;5058395;28;19920;-85
2023/05/18 04:08:00;;;;;;;;;;;14.00;81.30;;;-151.14;100.00;62537.16;5058224;28;19924;-85
2023/05/18 04:10:28;;;;;;;;;;;14.00;81.30;;;-151.14;100.00;62537.16;5057594;28;19930;-85
2023/05/18 04:12:57;;;;;;;;;;;14.00;81.20;;;-151.14;100.00;62537.16;5074834;28;20212;-85
2023/05/18 04:15:25;;;;;;;;;;;14.00;81.20;;;-151.14;100.00;62537.16;5058173;28;19926;-85
2023/05/18 04:17:54;;;;;;;;;;;14.00;81.20;;;-151.14;100.00;62537.16;5075200;28;19920;-85
2023/05/18 04:20:22;;;;;;;;;;;14.00;81.20;;;-151.14;100.00;62537.16;5057405;28;19926;-85
2023/05/18 04:22:51;;;;;;;;;;;14.00;81.20;;;-151.14;100.00;62537.16;5058053;28;19927;-84
2023/05/18 04:25:19;;;;;;;;;;;14.00;81.20;;;-151.14;100.00;62537.16;5058102;28;19920;-84
2023/05/18 04:27:50;;;;;;;;;;;14.00;81.30;;;-151.14;100.00;62537.16;5058238;28;19927;-85
2023/05/18 04:30:21;;;;;;;;;;;14.00;81.40;;;-151.14;100.00;62537.16;5074177;28;19926;-84
2023/05/18 04:32:49;;;;;;;;;;;14.00;81.60;;;-151.14;100.00;62537.16;5058319;28;19920;-84
2023/05/18 04:35:19;;;;;;;;;;;14.00;81.70;;;-151.14;100.00;62537.16;5057927;28;20395;-85
2023/05/18 04:37:47;;;;;;;;;;;14.00;81.70;;;-151.14;100.00;62537.16;5074708;28;20204;-85
2023/05/18 04:40:19;;;;;;;;;;;14.00;81.80;;;-151.14;100.00;62537.16;5074093;28;19921;-85
2023/05/18 04:42:49;;;;;;;;;;;14.00;82.10;;;-151.14;100.00;62537.16;5057987;28;19920;-85
2023/05/18 04:45:26;;;;;;;;;;;13.90;82.10;;;-151.14;100.00;62537.16;5057739;28;19920;-85
2023/05/18 04:47:57;;;;;;;;;;;14.00;82.10;;;-151.14;100.00;62537.16;5057705;28;19920;-84
2023/05/18 04:50:26;;;;;;;;;;;14.00;82.20;;;-151.14;100.00;62537.16;5073691;28;19920;-85
2023/05/18 04:52:56;;;;;;;;;;;14.00;82.10;;;-151.14;100.00;62537.16;5057520;28;20257;-85
2023/05/18 04:55:26;;;;;;;;;;;14.00;82.00;;;-151.14;100.00;62537.16;5057558;28;20230;-85
2023/05/18 04:57:55;;;;;;;;;;;14.00;82.30;;;-151.14;100.00;62537.16;5057681;28;19926;-85
2023/05/18 05:00:24;;;;;;;;;;;14.00;82.20;;;-151.14;100.00;62537.16;5073466;28;19926;-86
2023/05/18 05:02:52;;;;;;;;;;;14.00;82.20;;;-151.14;100.00;62537.16;5057721;28;19920;-84
2023/05/18 05:05:21;;;;;;;;;;;14.00;82.10;;;-151.14;100.00;62537.16;5073402;28;20120;-84
2023/05/18 05:07:51;;;;;;;;;;;14.00;82.30;;;-151.14;100.00;62537.16;5057345;28;19926;-84
2023/05/18 05:10:19;;;;;;;;;;;14.00;82.40;;;-151.14;100.00;62537.16;5056890;28;19920;-84
2023/05/18 05:12:47;;;;;;;;;;;14.00;82.50;;;-151.14;100.00;62537.16;5057394;28;20116;-84
2023/05/18 05:15:15;;;;;;;;;;;14.00;82.50;;;-151.14;100.00;62537.16;5057040;28;19920;-84
2023/05/18 05:17:43;;;;;;;;;;;14.10;82.60;;;-151.14;100.00;62537.16;5057258;28;19926;-84
2023/05/18 05:20:11;;;;;;;;;;;14.10;82.70;;;-151.14;100.00;62537.16;5056384;28;19930;-84
2023/05/18 05:22:39;;;;;;;;;;;14.10;83.70;;;-151.14;100.00;62537.16;5057188;28;19920;-84
2023/05/18 05:25:12;;;;;;;;;;;14.10;83.00;;;-151.14;100.00;62537.16;5057127;28;19949;-84
2023/05/18 05:27:40;;;;;;;;;;;14.10;83.80;;;-151.14;100.00;62537.16;5057209;28;19920;-84
2023/05/18 05:30:09;;;;;;;;;;;14.10;84.00;;;-151.14;100.00;62537.16;5056352;28;19920;-85
2023/05/18 05:32:38;;;;;;;;;;;14.10;84.20;;;-151.14;100.00;62537.16;5057065;28;20222;-85
2023/05/18 05:35:08;;;;;;;;;;;14.10;84.20;;;-151.14;100.00;62537.16;5056880;28;19927;-84
2023/05/18 05:37:37;;;;;;;;;;;14.10;84.10;;;-151.14;100.00;62537.16;5057028;28;19920;-85
2023/05/18 05:40:08;;;;;;;;;;;14.10;84.40;;;-151.14;100.00;62537.16;5056376;28;19920;-85
2023/05/18 05:42:43;;;;;;;;;;;14.20;84.00;;;-151.14;100.00;62537.16;5057029;28;19920;-85
2023/05/18 05:45:11;;;;;;;;;;;14.20;83.90;;;-151.14;100.00;62537.16;5056715;28;19926;-85
2023/05/18 05:47:49;;;;;;;;;;;14.20;83.40;;;-151.14;100.00;62537.16;5057040;28;19921;-84
2023/05/18 05:50:19;;;;;;;;;;;14.30;83.30;;;-151.14;100.00;62537.16;5056028;28;19920;-85
2023/05/18 05:52:49;;;;;;;;;;;14.30;82.50;;;-151.14;100.00;62537.16;5056650;28;19920;-84
2023/05/18 05:55:18;;;;;;;;;;;14.30;82.40;;;-151.14;100.00;62537.16;5056583;28;19920;-84
2023/05/18 05:57:47;;;;;;;;;;;14.30;82.60;;;-151.14;100.00;62537.16;5056769;28;19920;-85
2023/05/18 06:00:16;;;;;;;;;;;14.30;82.60;;;-151.14;100.00;62537.16;5055864;28;20208;-84
2023/05/18 06:02:53;;;;;;;;;;;14.30;82.50;;;-151.14;100.00;62537.16;5056863;28;19924;-85
2023/05/18 06:05:41;;;;;;;;;;;14.40;82.30;;;-151.14;100.00;62537.16;5072475;28;19920;-85
2023/05/18 06:08:11;;;;;;;;;;;14.40;82.70;;;-151.14;100.00;62537.16;5056620;28;19920;-85
2023/05/18 06:10:40;;;;;;;;;;;14.30;82.60;;;-151.14;100.00;62537.16;5055975;28;19942;-84
2023/05/18 06:13:10;;;;;;;;;;;14.30;82.20;;;-151.14;100.00;62537.16;5073275;28;20204;-84
2023/05/18 06:15:50;;;;;;;;;;;14.30;82.50;;;-151.14;100.00;62537.16;5056472;28;19927;-85
2023/05/18 06:18:18;;;;;;;;;;;14.40;82.20;;;-151.14;100.00;62537.16;5059865;28;19926;-85
2023/05/18 06:20:46;;;;;;;;;;;14.30;82.50;;;-151.14;100.00;62537.16;5059713;28;19920;-85
2023/05/18 06:23:21;;;;;;;;;;;14.40;82.30;;;-151.14;100.00;62537.16;5059995;28;20230;-84
2023/05/18 06:26:04;;;;;;;;;;;14.40;81.80;;;-151.14;100.00;62537.16;5076437;28;19928;-84
2023/05/18 06:29:02;;;;;;;;;;;14.40;81.60;;;-151.14;100.00;62537.16;4986354;28;19921;-84
2023/05/18 06:31:44;;;;;;;;;;;14.40;81.20;;;-151.14;100.00;62537.16;5056302;28;19927;-85
2023/05/18 06:34:18;;;;;;;;;;;14.40;81.00;;;-151.14;100.00;62537.16;5039947;28;19921;-85
2023/05/18 06:36:46;;;;;;;;;;;14.40;81.50;;;-151.14;100.00;62537.16;5039974;28;19921;-84
2023/05/18 06:39:14;;;;;;;;;;;14.50;81.60;;;-151.14;100.00;62537.16;5039232;28;19924;-84
2023/05/18 06:41:43;;;;;;;;;;;14.50;81.20;;;-151.14;100.00;62537.16;5039667;28;19927;-85
2023/05/18 06:44:14;;;;;;;;;;;14.50;81.00;;;-151.14;100.00;62537.16;5056547;28;19921;-85
2023/05/18 06:47:01;;;;;;;;;;;14.50;80.80;;;-151.14;100.00;62537.16;5039541;28;19926;-85
2023/05/18 06:49:31;;;;;;;;;;;14.60;80.30;;;-151.14;100.00;62537.16;5038995;28;19920;-85
2023/05/18 06:51:59;;;;;;;;;;;14.60;80.10;;;-151.14;100.00;62537.16;5039446;28;19927;-85
2023/05/18 06:54:28;;;;;;;;;;;14.60;80.20;;;-151.14;100.00;62537.16;5039531;28;19920;-85
2023/05/18 06:56:56;;;;;;;;;;;14.70;80.00;;;-151.14;100.00;62537.16;5055966;28;19950;-85
2023/05/18 06:59:26;;;;;;;;;;;14.60;79.90;;;-151.14;100.00;62537.16;5038626;28;19920;-85
2023/05/18 07:01:53;;;;;;;;;;;14.70;79.70;;;-151.14;100.00;62537.16;5039442;28;20331;-85
2023/05/18 07:04:22;;;;;;;;;;;14.70;79.70;;;-151.14;100.00;62537.16;5056063;28;19927;-85
2023/05/18 07:06:50;;;;;;;;;;;14.70;79.60;;;-151.14;100.00;62537.16;5055826;28;19921;-85
2023/05/18 07:09:18;;;;;;;;;;;14.70;79.60;;;-151.14;100.00;62537.16;5038702;28;20231;-85
2023/05/18 07:11:46;;;;;;;;;;;14.70;79.70;;;-151.14;100.00;62537.16;5055620;28;19920;-85
2023/05/18 07:14:14;;;;;;;;;;;14.80;79.40;;;-151.14;100.00;62537.16;5039315;28;19925;-85
2023/05/18 07:16:46;;;;;;;;;;;14.70;79.40;;;-151.14;100.00;62537.16;5039108;28;19927;-85
2023/05/18 07:19:14;;;;;;;;;;;14.80;79.40;;;-151.14;100.00;62537.16;5055380;28;19927;-85
2023/05/18 07:21:42;;;;;;;;;;;14.80;79.30;;;-151.14;100.00;62537.16;5039000;28;19955;-85
2023/05/18 07:24:10;;;;;;;;;;;14.80;79.20;;;-151.14;100.00;62537.16;5055790;28;20120;-84
2023/05/18 07:26:38;;;;;;;;;;;14.90;79.10;;;-151.14;100.00;62537.16;5039010;28;20258;-85
2023/05/18 07:29:06;;;;;;;;;;;14.90;79.30;;;-151.14;100.00;62537.16;5037744;28;19921;-85
2023/05/18 07:31:37;;;;;;;;;;;14.90;79.30;;;-151.14;100.00;62537.16;5072338;28;19927;-85
2023/05/18 07:34:07;;;;;;;;;;;14.90;79.00;;;-151.14;100.00;62537.16;5055434;28;19921;-85
2023/05/18 07:36:35;;;;;;;;;;;15.00;78.80;;;-151.14;100.00;62537.16;5038857;28;19927;-85
2023/05/18 07:39:03;;;;;;;;;;;15.00;78.70;;;-151.14;100.00;62537.16;5038188;28;19926;-85
2023/05/18 07:41:31;;;;;;;;;;;15.00;78.50;;;-151.14;100.00;62537.16;5055188;28;19921;-84
2023/05/18 07:43:59;;;;;;;;;;;15.10;78.90;;;-151.14;100.00;62537.16;5055442;28;20109;-85
2023/05/18 07:46:27;;;;;;;;;;;15.10;79.00;;;-151.14;100.00;62537.16;5055200;28;20236;-85
2023/05/18 07:48:55;;;;;;;;;;;15.10;78.90;;;-151.14;100.00;62537.16;5054661;28;19934;-85
2023/05/18 07:51:25;;;;;;;;;;;15.10;79.80;;;-151.14;100.00;62537.16;5054968;28;19920;-85
2023/05/18 07:53:53;;;;;;;;;;;15.10;78.50;;;-151.14;100.00;62537.16;5038603;28;19920;-85
2023/05/18 07:56:21;;;;;;;;;;;15.10;78.90;;;-151.14;100.00;62537.16;5054986;28;19927;-85
2023/05/18 07:58:49;;;;;;;;;;;15.20;78.90;;;-151.14;100.00;62537.16;5037910;28;19920;-85
2023/05/18 08:01:17;;;;;;;;;;;15.10;79.10;;;-151.14;100.00;62537.16;5055079;28;19931;-85
2023/05/18 08:03:45;;;;;;;;;;;15.20;79.20;;;-151.14;100.00;62537.16;5038559;28;19927;-84
2023/05/18 08:06:13;;;;;;;;;;;15.20;78.80;;;-151.14;100.00;62537.16;5054936;28;19942;-84
2023/05/18 08:08:42;;;;;;;;;;;15.30;79.00;;;-151.14;100.00;62537.16;5037854;28;19990;-85
2023/05/18 08:11:10;;;;;;;;;;;15.30;78.50;;;-151.14;100.00;62537.16;5054896;28;19925;-85
2023/05/18 08:13:38;;;;;;;;;;;15.40;78.40;;;-151.14;100.00;62537.16;5054748;28;19942;-84
2023/05/18 08:16:07;;;;;;;;;;;15.40;78.40;;;-151.14;100.00;62537.16;5038373;28;19920;-84
2023/05/18 08:18:35;;;;;;;;;;;15.40;78.20;;;-151.14;100.00;62537.16;5037608;28;19928;-85
2023/05/18 08:21:03;;;;;;;;;;;15.40;78.20;;;-151.14;100.00;62537.16;5071598;28;19921;-84
2023/05/18 08:23:31;;;;;;;;;;;15.50;78.20;;;-151.14;100.00;62537.16;5054662;28;19920;-85
2023/05/18 08:26:02;;;;;;;;;;;15.50;78.20;;;-151.14;100.00;62537.16;5038124;28;19921;-85
2023/05/18 08:28:30;;;;;;;;;;;15.50;78.30;;;-151.14;100.00;62537.16;5070967;28;19920;-85
2023/05/18 08:30:58;;;;;;;;;;;15.50;78.40;;;-151.14;100.00;62537.16;5054466;28;19927;-85
2023/05/18 08:33:26;;;;;;;;;;;15.50;78.10;;;-151.14;100.00;62537.16;5037726;28;20224;-85
2023/05/18 08:35:55;;;;;;;;;;;15.50;77.90;;;-151.14;100.00;62537.16;5054540;28;19921;-84
2023/05/18 08:38:23;;;;;;;;;;;15.50;78.20;;;-151.14;100.00;62537.16;5070875;28;19920;-85
2023/05/18 08:41:08;;;;;;;;;;;15.50;78.50;;;-151.14;100.00;62537.16;5053191;28;19920;-84
2023/05/18 08:43:38;;;;;;;;;;;15.50;78.00;;;-151.14;100.00;62537.16;5037786;28;19943;-85
2023/05/18 08:46:11;;;;;;;;;;;15.50;78.40;;;-151.14;100.00;62537.16;5054509;28;19945;-85
2023/05/18 08:48:39;;;;;;;;;;;15.50;77.80;;;-151.14;100.00;62537.16;5053540;28;19943;-85
2023/05/18 08:51:07;;;;;;;;;;;15.50;78.30;;;-151.14;100.00;62537.16;5053927;28;19927;-84
2023/05/18 08:53:35;;;;;;;;;;;15.60;78.00;;;-151.14;100.00;62537.16;5054114;28;19927;-85
2023/05/18 08:56:03;;;;;;;;;;;15.50;77.80;;;-151.14;100.00;62537.16;5037667;28;19921;-85
2023/05/18 08:58:35;;;;;;;;;;;15.50;77.40;;;-151.14;100.00;62537.16;5071533;28;19927;-84
2023/05/18 09:01:04;;;;;;;;;;;15.50;77.60;;;-151.14;100.00;62537.16;5037372;28;20196;-84
2023/05/18 09:03:32;;;;;;;;;;;15.50;77.80;;;-151.14;100.00;62537.16;5037597;28;19927;-84
2023/05/18 09:06:00;;;;;;;;;;;15.50;77.70;;;-151.14;100.00;62537.16;5037554;28;19920;-84
2023/05/18 09:08:28;;;;;;;;;;;15.50;77.30;;;-151.14;100.00;62537.16;5036609;28;19925;-84
2023/05/18 09:10:57;;;;;;;;;;;15.50;77.50;;;-151.14;100.00;62537.16;5070768;28;19920;-84
2023/05/18 09:13:25;;;;;;;;;;;15.50;77.60;;;-151.14;100.00;62537.16;5053713;28;19926;-84
2023/05/18 09:15:55;;;;;;;;;;;15.40;77.50;;;-151.14;100.00;62537.16;5037468;28;19927;-84
2023/05/18 09:18:23;;;;;;;;;;;15.40;77.40;;;-151.14;100.00;62537.16;5036780;28;19927;-84
2023/05/18 09:20:51;;;;;;;;;;;15.40;77.70;;;-151.14;100.00;62537.16;5053966;28;20116;-84
2023/05/18 09:23:19;;;;;;;;;;;15.40;77.60;;;-151.14;100.00;62537.16;5053683;28;19920;-85
2023/05/18 09:25:48;;;;;;;;;;;15.40;77.80;;;-151.14;100.00;62537.16;5070691;28;19927;-84
2023/05/18 09:28:25;;;;;;;;;;;15.40;78.20;;;-151.14;100.00;62537.16;5071229;28;19927;-84
2023/05/18 09:30:55;;;;;;;;;;;15.40;77.60;;;-151.14;100.00;62537.16;5053793;28;19927;-84
2023/05/18 09:33:23;;;;;;;;;;;15.40;77.50;;;-151.14;100.00;62537.16;5037175;28;19920;-83
2023/05/18 09:35:51;;;;;;;;;;;15.40;77.50;;;-151.14;100.00;62537.16;5053818;28;19921;-84
2023/05/18 09:38:22;;;;;;;;;;;15.40;77.50;;;-151.14;100.00;62537.16;5053087;28;19935;-83
2023/05/18 09:40:50;;;;;;;;;;;15.40;77.50;;;-151.14;100.00;62537.16;5037061;28;19927;-83
2023/05/18 09:43:18;;;;;;;;;;;15.40;77.60;;;-151.14;100.00;62537.16;5070297;28;19927;-83
2023/05/18 09:45:47;;;;;;;;;;;15.40;77.20;;;-151.14;100.00;62537.16;5062765;28;19920;-83
2023/05/18 09:48:17;;;;;;;;;;;15.40;77.20;;;-151.14;100.00;62537.16;5056471;28;19920;-84
2023/05/18 09:50:45;;;;;;;;;;;15.40;77.10;;;-151.14;100.00;62537.16;5090663;28;19927;-84
2023/05/18 09:53:13;;;;;;;;;;;15.50;77.30;;;-151.14;100.00;62537.16;5056604;28;19920;-83
2023/05/18 09:55:45;;;;;;;;;;;15.40;77.10;;;-151.14;100.00;62537.16;5056780;28;19927;-83
2023/05/18 09:58:13;;;;;;;;;;;15.40;76.90;;;-151.14;100.00;62537.16;5073010;28;20212;-84
2023/05/18 10:00:42;;;;;;;;;;;15.50;77.20;;;-151.14;100.00;62537.16;5056245;28;19920;-83
2023/05/18 10:03:18;;;;;;;;;;;15.50;76.90;;;-151.14;100.00;62537.16;5056436;28;19920;-83
2023/05/18 10:05:46;;;;;;;;;;;15.50;77.00;;;-151.14;100.00;62537.16;5056800;28;20216;-84
2023/05/18 10:08:15;;;;;;;;;;;15.50;77.00;;;-151.14;100.00;62537.16;5073044;28;20226;-84
2023/05/18 10:10:44;;;;;;;;;;;15.50;76.80;;;-151.14;100.00;62537.16;5090741;28;19920;-84
2023/05/18 10:13:16;;;;;;;;;;;15.50;76.80;;;-151.14;100.00;62537.16;5073029;28;20097;-84
2023/05/18 10:15:48;;;;;;;;;;;15.50;76.70;;;-151.14;100.00;62537.16;5073390;28;19920;-84
2023/05/18 10:18:21;;;;;;;;;;;15.50;76.60;;;-151.14;100.00;62537.16;5072582;28;19920;-84
2023/05/18 10:20:50;;;;;;;;;;;15.50;76.50;;;-151.14;100.00;62537.16;5056259;28;19920;-83
2023/05/18 10:23:19;;;;;;;;;;;15.50;76.40;;;-151.14;100.00;62537.16;5056260;28;20234;-84
2023/05/18 10:25:47;;;;;;;;;;;15.60;76.10;;;-151.14;100.00;62537.16;5073009;28;19927;-84
2023/05/18 10:28:23;;;;;;;;;;;15.60;76.00;;;-151.14;100.00;62537.16;5055963;28;19927;-84
2023/05/18 10:30:51;;;;;;;;;;;15.60;76.10;;;-151.14;100.00;62537.16;5072824;28;19920;-83
2023/05/18 10:33:21;;;;;;;;;;;15.50;76.10;;;-151.14;100.00;62537.16;5072976;28;19921;-84
2023/05/18 10:35:49;;;;;;;;;;;15.50;76.10;;;-151.14;100.00;62537.16;5090833;28;19920;-83
2023/05/18 10:38:21;;;;;;;;;;;15.50;76.00;;;-151.14;100.00;62537.16;5055723;28;19920;-84
2023/05/18 10:40:50;;;;;;;;;;;15.60;75.80;;;-151.14;100.00;62537.16;5056025;28;19942;-83
2023/05/18 10:43:19;;;;;;;;;;;15.60;75.50;;;-151.14;100.00;62537.16;5072734;28;20234;-83
2023/05/18 10:45:48;;;;;;;;;;;15.60;75.50;;;-151.14;100.00;62537.16;5056298;28;19920;-83
2023/05/18 10:48:16;;;;;;;;;;;15.60;75.50;;;-151.14;100.00;62537.16;5072529;28;19926;-84
2023/05/18 10:50:46;;;;;;;;;;;15.60;75.10;;;-151.14;100.00;62537.16;5072172;28;19920;-83
2023/05/18 10:53:14;;;;;;;;;;;15.60;75.10;;;-151.14;100.00;62537.16;5036154;28;19927;-83
2023/05/18 10:55:42;;;;;;;;;;;15.60;75.00;;;-151.14;100.00;62537.16;5069222;28;19927;-83
2023/05/18 10:58:13;;;;;;;;;;;15.60;74.60;;;-151.14;100.00;62537.16;5070557;28;19925;-83
2023/05/18 11:00:41;;;;;;;;;;;15.60;74.60;;;-151.14;100.00;62537.16;5052215;28;19927;-83
2023/05/18 11:03:11;;;;;;;;;;;15.60;74.30;;;-151.14;100.00;62537.16;5053266;28;19921;-83
2023/05/18 11:05:39;;;;;;;;;;;15.60;74.50;;;-151.14;100.00;62537.16;5073963;28;19926;-83